This is the latest recevied weather packets stored in our database for station/object I3RKE-10. If no packets are shown the sender has not sent any weather packets the latest 10 day(s).
| Time | Temp. | Humidity | Pressure | Rain* | Wind** | Luminosity | Snow |
|---|---|---|---|---|---|---|---|
| 1777851697 | 15° C | 58% | 1010.8 hPa | - | - | - | - |
| 1777850797 | 15° C | 58% | 1010.8 hPa | - | - | - | - |
| 1777849897 | 14.44° C | 58% | 1010.8 hPa | - | - | - | - |
| 1777848997 | 15° C | 57% | 1010.9 hPa | - | - | - | - |
| 1777848097 | 15° C | 58% | 1010.9 hPa | - | - | - | - |
| 1777847197 | 15° C | 57% | 1011 hPa | - | - | - | - |
| 1777846297 | 15° C | 57% | 1010.8 hPa | - | - | - | - |
| 1777845397 | 14.44° C | 59% | 1010.8 hPa | - | - | - | - |
| 1777844497 | 15° C | 57% | 1010.9 hPa | - | - | - | - |
| 1777843597 | 15.56° C | 56% | 1010.9 hPa | - | - | - | - |
| 1777842696 | 15.56° C | 56% | 1010.8 hPa | - | - | - | - |
| 1777841796 | 16.11° C | 55% | 1010.7 hPa | - | - | - | - |
| 1777840896 | 16.67° C | 53% | 1010.7 hPa | - | - | - | - |
| 1777839996 | 16.67° C | 54% | 1010.8 hPa | - | - | - | - |
| 1777839096 | 17.22° C | 52% | 1010.7 hPa | - | - | - | - |
| 1777838196 | 17.78° C | 49% | 1010.6 hPa | - | - | - | - |
| 1777837296 | 18.33° C | 48% | 1010.7 hPa | - | - | - | - |
| 1777836396 | 19.44° C | 44% | 1010.7 hPa | - | - | - | - |
| 1777835496 | 20° C | 40% | 1010.5 hPa | - | - | - | - |
| 1777834596 | 20.56° C | 38% | 1010.3 hPa | - | - | - | - |
| 1777833696 | 21.11° C | 37% | 1010.2 hPa | - | - | - | - |
| 1777832795 | 21.67° C | 35% | 1010.2 hPa | - | - | - | - |
| 1777831895 | 22.22° C | 33% | 1010.1 hPa | - | - | - | - |
| 1777830995 | 22.78° C | 32% | 1009.9 hPa | - | - | - | - |
| 1777830095 | 23.89° C | 28% | 1009.9 hPa | - | - | - | - |
* Rain since midnight (hover to see other rain measurements)
** Current wind speed in m/s (hover to see current wind gust speed)